createdAt,value
2019-04-10T00:01:27.848Z,4.16
2019-04-10T00:04:00.609Z,4.11
2019-04-10T00:06:34.001Z,4.09
2019-04-10T00:09:08.431Z,4.07
2019-04-10T00:11:40.989Z,4.10
2019-04-10T00:14:12.855Z,4.08
2019-04-10T00:16:46.691Z,4.12
2019-04-10T00:19:18.772Z,4.06
2019-04-10T00:21:50.765Z,3.98
2019-04-10T00:24:22.633Z,3.97
2019-04-10T00:26:54.597Z,3.95
2019-04-10T00:29:26.457Z,3.95
2019-04-10T00:32:01.324Z,3.95
2019-04-10T00:34:32.022Z,3.93
2019-04-10T00:37:04.090Z,3.88
2019-04-10T00:39:36.929Z,3.89
2019-04-10T00:42:09.241Z,3.87
2019-04-10T00:44:42.208Z,3.87
2019-04-10T00:47:14.888Z,3.90
2019-04-10T00:49:46.955Z,3.88
2019-04-10T00:52:19.753Z,3.86
2019-04-10T00:54:51.746Z,3.85
2019-04-10T00:57:23.896Z,3.83
2019-04-10T00:59:56.722Z,3.73
2019-04-10T01:02:29.152Z,3.77
2019-04-10T01:05:00.982Z,3.74
2019-04-10T01:07:39.849Z,3.73
2019-04-10T01:10:08.786Z,3.70
2019-04-10T01:12:40.905Z,3.70
2019-04-10T01:15:12.857Z,3.69
2019-04-10T01:17:44.931Z,3.68
2019-04-10T01:20:17.615Z,3.63
2019-04-10T01:22:49.985Z,3.63
2019-04-10T01:25:22.078Z,3.58
2019-04-10T01:27:54.341Z,3.52
2019-04-10T01:30:26.397Z,3.48
2019-04-10T01:32:58.573Z,3.41
2019-04-10T01:35:30.603Z,3.39
2019-04-10T01:38:04.641Z,3.39
2019-04-10T01:40:37.305Z,3.34
2019-04-10T01:43:14.519Z,3.30
2019-04-10T01:45:44.020Z,3.23
2019-04-10T01:48:16.074Z,3.13
2019-04-10T01:50:47.773Z,3.12
2019-04-10T01:53:19.806Z,3.07
2019-04-10T01:55:51.796Z,3.04
2019-04-10T01:58:25.280Z,2.95
2019-04-10T02:01:18.960Z,2.89
2019-04-10T02:03:52.044Z,2.83
2019-04-10T02:06:23.903Z,2.73
2019-04-10T02:08:56.339Z,2.70
2019-04-10T02:11:28.529Z,2.66
2019-04-10T02:14:00.471Z,2.66
2019-04-10T02:16:32.627Z,2.66
2019-04-10T02:19:06.000Z,2.64
2019-04-10T02:21:38.090Z,2.58
2019-04-10T02:24:11.117Z,2.55
2019-04-10T02:26:43.474Z,2.53
2019-04-10T02:29:15.660Z,2.50
2019-04-10T02:31:48.494Z,2.46
2019-04-10T02:34:21.497Z,2.39
2019-04-10T02:36:55.344Z,2.37
2019-04-10T02:39:37.384Z,2.33
2019-04-10T02:42:02.850Z,2.31
2019-04-10T02:44:35.509Z,2.30
2019-04-10T02:47:07.463Z,2.28
2019-04-10T02:49:40.396Z,2.24
2019-04-10T02:52:13.011Z,2.24
2019-04-10T02:54:46.298Z,2.23
2019-04-10T02:57:19.426Z,2.26
2019-04-10T02:59:53.680Z,2.23
2019-04-10T03:02:26.684Z,2.22
2019-04-10T03:04:59.406Z,2.22
2019-04-10T03:07:31.873Z,2.20
2019-04-10T03:10:15.348Z,2.15
2019-04-10T03:12:38.747Z,2.13
2019-04-10T03:15:12.745Z,2.10
2019-04-10T03:17:44.868Z,2.05
2019-04-10T03:20:18.417Z,2.03
2019-04-10T03:22:51.358Z,1.99
2019-04-10T03:25:24.555Z,1.95
2019-04-10T03:27:56.665Z,1.90
2019-04-10T03:30:29.687Z,1.88
2019-04-10T03:33:24.626Z,1.87
2019-04-10T03:35:54.909Z,1.83
2019-04-10T03:38:26.928Z,1.78
2019-04-10T03:40:59.793Z,1.73
2019-04-10T03:43:33.947Z,1.67
2019-04-10T03:46:06.174Z,1.65
2019-04-10T03:48:38.913Z,1.65
2019-04-10T03:51:12.261Z,1.64
2019-04-10T03:53:44.539Z,1.65
2019-04-10T03:56:18.055Z,1.64
2019-04-10T03:58:50.168Z,1.61
2019-04-10T04:01:22.978Z,1.59
2019-04-10T04:03:55.225Z,1.56
2019-04-10T04:06:27.893Z,1.54
2019-04-10T04:09:05.607Z,1.52
2019-04-10T04:11:34.832Z,1.43
2019-04-10T04:14:08.256Z,1.41
2019-04-10T04:16:41.325Z,1.51
2019-04-10T04:19:13.571Z,1.51
2019-04-10T04:21:45.728Z,1.54
2019-04-10T04:24:17.868Z,1.57
2019-04-10T04:26:50.802Z,1.63
2019-04-10T04:29:23.161Z,1.62
2019-04-10T04:31:55.235Z,1.69
2019-04-10T04:34:27.296Z,1.75
2019-04-10T04:37:00.337Z,1.80
2019-04-10T04:39:33.037Z,1.89
2019-04-10T04:42:05.353Z,1.95
2019-04-10T04:44:37.654Z,1.99
2019-04-10T04:47:09.890Z,2.04
2019-04-10T04:49:42.103Z,2.08
2019-04-10T04:52:16.174Z,2.12
2019-04-10T04:54:49.833Z,2.18
2019-04-10T04:57:22.634Z,2.26
2019-04-10T04:59:54.854Z,2.29
2019-04-10T05:02:28.088Z,2.37
2019-04-10T05:05:00.407Z,2.42
2019-04-10T05:07:33.292Z,2.50
2019-04-10T05:10:07.041Z,2.58
2019-04-10T05:12:39.301Z,2.66
2019-04-10T05:15:11.408Z,2.76
2019-04-10T05:17:43.379Z,2.78
2019-04-10T05:20:15.233Z,2.94
2019-04-10T05:22:47.203Z,2.97
2019-04-10T05:25:19.095Z,3.17
2019-04-10T05:27:51.129Z,3.25
2019-04-10T05:30:23.222Z,3.39
2019-04-10T05:32:55.697Z,3.24
2019-04-10T05:35:27.866Z,3.35
2019-04-10T05:38:00.433Z,3.30
2019-04-10T05:40:33.236Z,3.42
2019-04-10T05:43:05.942Z,3.58
2019-04-10T05:45:38.037Z,3.62
2019-04-10T05:48:11.096Z,3.70
2019-04-10T05:50:53.093Z,3.77
2019-04-10T05:53:16.912Z,3.65
2019-04-10T05:55:49.368Z,3.67
2019-04-10T05:58:21.800Z,3.83
2019-04-10T06:00:54.937Z,4.00
2019-04-10T06:03:26.916Z,4.08
2019-04-10T06:06:00.978Z,4.11
2019-04-10T06:08:33.711Z,4.07
2019-04-10T06:11:06.673Z,4.00
2019-04-10T06:13:39.080Z,4.06
2019-04-10T06:16:11.858Z,4.30
2019-04-10T06:18:45.154Z,4.49
2019-04-10T06:21:17.199Z,4.63
2019-04-10T06:23:49.856Z,4.73
2019-04-10T06:26:21.991Z,4.87
2019-04-10T06:28:54.744Z,5.18
2019-04-10T06:31:28.392Z,5.36
2019-04-10T06:34:00.856Z,5.28
2019-04-10T06:36:33.407Z,5.73
2019-04-10T06:39:07.248Z,5.96
2019-04-10T06:41:39.133Z,6.04
2019-04-10T06:44:12.274Z,6.21
2019-04-10T06:46:44.554Z,6.49
2019-04-10T06:49:17.937Z,6.79
2019-04-10T06:51:49.838Z,6.81
2019-04-10T06:54:22.760Z,7.10
2019-04-10T06:56:54.726Z,7.29
2019-04-10T06:59:26.881Z,7.15
2019-04-10T07:02:14.134Z,7.39
2019-04-10T07:04:44.161Z,7.58
2019-04-10T07:07:11.280Z,7.82
2019-04-10T07:09:40.735Z,7.96
2019-04-10T07:12:12.988Z,8.05
2019-04-10T07:14:48.183Z,7.82
2019-04-10T07:17:18.516Z,7.80
2019-04-10T07:19:51.332Z,7.42
2019-04-10T07:22:23.337Z,7.78
2019-04-10T07:24:56.371Z,7.79
2019-04-10T07:27:28.325Z,7.61
2019-04-10T07:30:01.475Z,7.77
2019-04-10T07:32:36.072Z,7.81
2019-04-10T07:35:11.239Z,7.79
2019-04-10T07:37:44.444Z,7.95
2019-04-10T07:40:17.177Z,8.14
2019-04-10T07:42:49.040Z,8.32
2019-04-10T07:45:20.974Z,8.30
2019-04-10T07:47:53.948Z,8.31
2019-04-10T07:50:26.206Z,8.42
2019-04-10T07:52:58.196Z,8.46
2019-04-10T07:55:30.911Z,8.63
2019-04-10T07:58:03.127Z,8.59
2019-04-10T08:00:35.160Z,8.65
2019-04-10T08:03:08.226Z,8.72
2019-04-10T08:05:41.981Z,8.61
2019-04-10T08:08:13.836Z,8.79
2019-04-10T08:10:45.836Z,8.91
2019-04-10T08:13:17.637Z,9.08
2019-04-10T08:15:50.077Z,9.38
2019-04-10T08:18:23.269Z,9.60
2019-04-10T08:20:55.770Z,9.21
2019-04-10T08:23:28.132Z,9.58
2019-04-10T08:26:00.310Z,9.57
2019-04-10T08:28:33.376Z,9.72
2019-04-10T08:31:06.479Z,9.89
2019-04-10T08:33:38.765Z,10.04
2019-04-10T08:36:10.943Z,9.67
2019-04-10T08:38:43.216Z,9.78
2019-04-10T08:41:15.379Z,9.96
2019-04-10T08:43:48.101Z,10.30
2019-04-10T08:46:20.077Z,10.14
2019-04-10T08:48:52.030Z,9.70
2019-04-10T08:51:24.148Z,10.14
2019-04-10T08:53:56.830Z,9.98
2019-04-10T08:56:30.123Z,10.46
2019-04-10T08:59:03.387Z,10.67
2019-04-10T09:01:35.808Z,10.64
2019-04-10T09:04:07.872Z,10.88
2019-04-10T09:06:40.128Z,10.99
2019-04-10T09:09:12.959Z,10.86
2019-04-10T09:11:45.491Z,10.87
2019-04-10T09:14:17.316Z,10.88
2019-04-10T09:16:49.421Z,10.90
2019-04-10T09:19:22.151Z,11.04
2019-04-10T09:21:55.482Z,11.12
2019-04-10T09:24:27.945Z,11.20
2019-04-10T09:27:00.519Z,11.35
2019-04-10T09:29:32.609Z,11.30
2019-04-10T09:32:04.623Z,11.49
2019-04-10T09:34:36.733Z,11.46
2019-04-10T09:37:08.826Z,10.14
2019-04-10T09:39:41.306Z,10.87
2019-04-10T09:42:13.585Z,11.32
2019-04-10T09:44:46.312Z,11.28
2019-04-10T09:47:18.716Z,11.42
2019-04-10T09:49:51.381Z,11.34
2019-04-10T09:52:23.759Z,11.07
2019-04-10T09:54:55.709Z,10.99
2019-04-10T09:57:28.722Z,11.33
2019-04-10T10:00:00.969Z,11.57
2019-04-10T10:02:35.760Z,11.79
2019-04-10T10:05:08.472Z,11.85
2019-04-10T10:07:41.047Z,11.12
2019-04-10T10:10:15.060Z,10.99
2019-04-10T10:12:48.409Z,11.11
2019-04-10T10:15:21.067Z,11.48
2019-04-10T10:17:53.146Z,11.77
2019-04-10T10:20:25.948Z,11.82
2019-04-10T10:22:58.293Z,11.46
2019-04-10T10:25:31.181Z,11.25
2019-04-10T10:28:04.985Z,11.57
2019-04-10T10:30:37.801Z,11.41
2019-04-10T10:33:09.932Z,11.71
2019-04-10T10:35:43.092Z,11.96
2019-04-10T10:38:15.186Z,12.13
2019-04-10T10:40:47.395Z,12.28
2019-04-10T10:43:20.439Z,12.12
2019-04-10T10:45:53.401Z,11.97
2019-04-10T10:48:25.604Z,11.80
2019-04-10T10:50:58.253Z,11.33
2019-04-10T10:53:32.400Z,11.48
2019-04-10T10:56:04.341Z,11.70
2019-04-10T10:58:37.555Z,11.65
2019-04-10T11:01:09.715Z,11.74
2019-04-10T11:03:42.527Z,11.88
2019-04-10T11:06:16.146Z,12.01
2019-04-10T11:08:48.885Z,12.31
2019-04-10T11:11:20.739Z,12.34
2019-04-10T11:13:52.940Z,12.45
2019-04-10T11:16:24.871Z,12.12
2019-04-10T11:18:57.641Z,11.97
2019-04-10T11:21:30.051Z,11.96
2019-04-10T11:24:03.072Z,12.09
2019-04-10T11:26:36.173Z,12.38
2019-04-10T11:29:09.919Z,12.96
2019-04-10T11:31:41.907Z,13.31
2019-04-10T11:34:14.165Z,13.00
2019-04-10T11:36:46.385Z,12.98
2019-04-10T11:41:52.732Z,13.34
2019-04-10T11:44:27.282Z,13.53
2019-04-10T11:46:58.947Z,13.95
2019-04-10T11:49:32.934Z,14.21
2019-04-10T11:52:06.242Z,14.45
2019-04-10T11:54:41.357Z,14.62
2019-04-10T11:57:13.305Z,14.74
2019-04-10T11:59:48.850Z,14.87
2019-04-10T12:02:21.887Z,15.02
2019-04-10T12:04:57.681Z,14.59
2019-04-10T12:07:55.055Z,14.98
2019-04-10T12:12:35.381Z,15.43
2019-04-10T12:15:08.792Z,15.81
2019-04-10T12:17:40.616Z,16.04
2019-04-10T12:20:13.162Z,16.51
2019-04-10T12:22:46.190Z,16.35
2019-04-10T12:25:18.730Z,16.70
2019-04-10T12:27:51.578Z,17.30
2019-04-10T12:30:23.608Z,17.66
2019-04-10T12:32:55.509Z,18.02
2019-04-10T12:35:27.738Z,18.69
2019-04-10T12:38:03.750Z,19.62
2019-04-10T12:40:35.176Z,20.09
2019-04-10T12:43:10.512Z,20.54
2019-04-10T12:45:42.635Z,20.65
2019-04-10T12:48:14.819Z,21.90
2019-04-10T12:50:47.501Z,23.37
2019-04-10T12:53:19.826Z,23.88
2019-04-10T12:55:51.925Z,25.29
2019-04-10T12:58:23.974Z,25.00
2019-04-10T13:00:56.397Z,26.10
2019-04-10T13:03:29.385Z,27.06
2019-04-10T13:06:01.919Z,27.28
2019-04-10T13:08:51.112Z,27.46
2019-04-10T13:11:07.839Z,29.19
2019-04-10T13:13:39.683Z,30.71
2019-04-10T13:16:11.971Z,31.42
2019-04-10T13:18:44.758Z,32.59
2019-04-10T13:21:18.027Z,33.43
2019-04-10T13:23:50.300Z,34.57
2019-04-10T13:26:22.343Z,35.44
2019-04-10T13:28:54.365Z,36.07
2019-04-10T13:31:27.650Z,36.22
2019-04-10T13:34:00.722Z,36.49
2019-04-10T13:36:33.792Z,34.61
2019-04-10T13:39:07.187Z,32.44
2019-04-10T13:41:40.706Z,33.58
2019-04-10T13:44:14.151Z,35.72
2019-04-10T13:46:48.980Z,37.01
2019-04-10T13:49:22.009Z,37.73
2019-04-10T13:51:54.379Z,38.03
2019-04-10T13:54:26.467Z,37.75
2019-04-10T13:56:58.781Z,37.88
2019-04-10T13:59:31.184Z,38.06
2019-04-10T14:02:05.242Z,38.03
2019-04-10T14:04:37.247Z,38.18
2019-04-10T14:07:09.572Z,38.19
2019-04-10T14:09:47.122Z,38.53
2019-04-10T14:12:16.628Z,37.86
2019-04-10T14:14:48.906Z,34.26
2019-04-10T14:17:21.526Z,29.24
2019-04-10T14:19:54.735Z,25.83
2019-04-10T14:22:27.049Z,23.88
2019-04-10T14:24:59.194Z,22.34
2019-04-10T14:27:32.325Z,21.03
2019-04-10T14:30:05.370Z,19.97
2019-04-10T14:32:39.734Z,19.22
2019-04-10T14:35:11.953Z,18.34
2019-04-10T14:37:43.883Z,17.74
2019-04-10T14:40:17.023Z,17.04
2019-04-10T14:42:51.380Z,16.55
2019-04-10T14:45:23.648Z,16.04
2019-04-10T14:47:56.811Z,15.67
2019-04-10T14:50:29.560Z,15.80
2019-04-10T14:53:01.919Z,16.13
2019-04-10T14:55:34.245Z,15.90
2019-04-10T14:58:18.995Z,15.73
2019-04-10T15:00:51.163Z,15.63
2019-04-10T15:03:24.473Z,15.29
2019-04-10T15:05:58.271Z,14.82
2019-04-10T15:08:31.454Z,14.46
2019-04-10T15:11:04.529Z,14.32
2019-04-10T15:13:37.985Z,13.99
2019-04-10T15:16:10.095Z,14.16
2019-04-10T15:18:43.558Z,14.39
2019-04-10T15:21:15.918Z,14.74
2019-04-10T15:23:48.114Z,15.00
2019-04-10T15:26:20.496Z,14.76
2019-04-10T15:28:52.426Z,14.51
2019-04-10T15:31:27.202Z,14.22
2019-04-10T15:33:58.151Z,14.02
2019-04-10T15:36:30.283Z,14.06
2019-04-10T15:39:02.379Z,14.35
2019-04-10T15:41:36.042Z,14.17
2019-04-10T15:44:09.872Z,14.05
2019-04-10T15:46:42.186Z,13.77
2019-04-10T15:49:15.294Z,13.54
2019-04-10T15:51:47.583Z,13.45
2019-04-10T15:54:19.938Z,13.07
2019-04-10T15:56:52.777Z,12.61
2019-04-10T15:59:24.924Z,12.00
2019-04-10T16:01:57.332Z,11.60
2019-04-10T16:04:29.631Z,11.21
2019-04-10T16:07:02.115Z,10.84
2019-04-10T16:09:44.899Z,10.57
2019-04-10T16:12:14.529Z,10.33
2019-04-10T16:14:46.680Z,10.14
2019-04-10T16:17:37.690Z,9.97
2019-04-10T16:20:25.266Z,9.89
2019-04-10T16:23:14.591Z,9.86
2019-04-10T16:25:52.370Z,9.77
2019-04-10T16:28:26.989Z,9.66
2019-04-10T16:31:01.323Z,9.55
2019-04-10T16:33:33.542Z,9.22
2019-04-10T16:36:06.080Z,9.06
2019-04-10T16:38:38.527Z,9.07
2019-04-10T16:41:10.866Z,8.94
2019-04-10T16:43:43.020Z,8.88
2019-04-10T16:46:15.350Z,8.86
2019-04-10T16:48:48.363Z,8.84
2019-04-10T16:51:20.978Z,8.72
2019-04-10T16:53:53.739Z,8.72
2019-04-10T16:56:26.001Z,8.65
2019-04-10T16:58:58.464Z,8.62
2019-04-10T17:01:30.984Z,8.55
2019-04-10T17:04:03.182Z,8.47
2019-04-10T17:06:36.459Z,8.33
2019-04-10T17:09:10.859Z,8.26
2019-04-10T17:11:43.508Z,8.22
2019-04-10T17:14:17.390Z,8.16
2019-04-10T17:16:50.300Z,8.06
2019-04-10T17:19:22.195Z,7.98
2019-04-10T17:21:54.353Z,7.90
2019-04-10T17:24:27.287Z,7.84
2019-04-10T17:26:59.529Z,7.81
2019-04-10T17:29:31.643Z,7.76
2019-04-10T17:32:04.712Z,7.69
2019-04-10T17:34:36.723Z,7.59
2019-04-10T17:37:09.723Z,7.51
2019-04-10T17:39:41.841Z,7.40
2019-04-10T17:42:14.522Z,7.26
2019-04-10T17:44:47.799Z,7.18
2019-04-10T17:47:20.781Z,7.18
2019-04-10T17:49:54.066Z,7.06
2019-04-10T17:52:27.138Z,7.02
2019-04-10T17:54:59.340Z,6.90
2019-04-10T17:57:38.178Z,6.95
2019-04-10T18:00:09.027Z,6.86
2019-04-10T18:02:43.087Z,6.78
2019-04-10T18:05:15.199Z,6.70
2019-04-10T18:07:47.975Z,6.67
2019-04-10T18:10:20.366Z,6.65
2019-04-10T18:12:52.789Z,6.55
2019-04-10T18:15:26.076Z,6.53
2019-04-10T18:17:58.138Z,6.52
2019-04-10T18:20:29.947Z,6.54
2019-04-10T18:23:02.911Z,6.58
2019-04-10T18:25:36.086Z,6.58
2019-04-10T18:28:09.508Z,6.53
2019-04-10T18:30:41.848Z,6.47
2019-04-10T18:33:14.212Z,6.45
2019-04-10T18:35:47.058Z,6.44
2019-04-10T18:38:19.564Z,6.31
2019-04-10T18:40:58.600Z,6.21
2019-04-10T18:43:26.954Z,6.14
2019-04-10T18:46:10.233Z,6.08
2019-04-10T18:48:32.712Z,5.98
2019-04-10T18:51:06.596Z,5.95
2019-04-10T18:53:39.381Z,5.89
2019-04-10T18:56:11.625Z,5.81
2019-04-10T18:58:49.631Z,5.75
2019-04-10T19:01:39.538Z,5.76
2019-04-10T19:04:18.751Z,5.72
2019-04-10T19:06:56.538Z,5.61
2019-04-10T19:09:39.100Z,5.58
2019-04-10T19:12:11.043Z,5.57
2019-04-10T19:14:43.011Z,5.49
2019-04-10T19:17:17.043Z,5.50
2019-04-10T19:19:50.697Z,5.48
2019-04-10T19:22:24.244Z,5.48
2019-04-10T19:24:56.743Z,5.44
2019-04-10T19:27:28.842Z,5.45
2019-04-10T19:30:00.916Z,5.48
2019-04-10T19:32:37.382Z,5.51
2019-04-10T19:35:10.840Z,5.55
2019-04-10T19:37:42.883Z,5.60
2019-04-10T19:40:16.019Z,5.65
2019-04-10T19:42:49.267Z,5.70
2019-04-10T19:45:21.673Z,5.74
2019-04-10T19:47:54.660Z,5.77
2019-04-10T19:50:27.700Z,5.81
2019-04-10T19:53:00.510Z,5.84
2019-04-10T19:55:32.830Z,5.86
2019-04-10T19:58:05.938Z,5.86
2019-04-10T20:00:38.853Z,5.85
2019-04-10T20:03:11.201Z,5.83
2019-04-10T20:05:43.765Z,5.84
2019-04-10T20:08:15.596Z,5.84
2019-04-10T20:10:47.884Z,5.87
2019-04-10T20:13:20.635Z,5.86
2019-04-10T20:15:53.137Z,5.84
2019-04-10T20:18:26.338Z,5.85
2019-04-10T20:20:59.675Z,5.89
2019-04-10T20:23:32.060Z,5.85
2019-04-10T20:26:05.127Z,5.86
2019-04-10T20:28:37.078Z,5.83
2019-04-10T20:31:13.103Z,5.79
2019-04-10T20:33:45.236Z,5.81
2019-04-10T20:36:17.357Z,5.83
2019-04-10T20:38:50.264Z,5.82
2019-04-10T20:41:22.731Z,5.74
2019-04-10T20:43:55.388Z,5.68
2019-04-10T20:46:28.467Z,5.72
2019-04-10T20:49:00.608Z,5.70
2019-04-10T20:51:34.179Z,5.65
2019-04-10T20:54:06.556Z,5.60
2019-04-10T20:56:39.025Z,5.56
2019-04-10T20:59:11.968Z,5.49
2019-04-10T21:01:44.943Z,5.50
2019-04-10T21:04:17.045Z,5.47
2019-04-10T21:06:50.147Z,5.42
2019-04-10T21:09:21.981Z,5.41
2019-04-10T21:12:02.079Z,5.40
2019-04-10T21:14:27.637Z,5.39
2019-04-10T21:17:00.385Z,5.29
2019-04-10T21:19:33.456Z,5.27
2019-04-10T21:22:05.958Z,5.23
2019-04-10T21:24:37.910Z,5.16
2019-04-10T21:27:11.203Z,5.09
2019-04-10T21:30:07.269Z,5.06
2019-04-10T21:32:47.484Z,5.05
2019-04-10T21:35:22.914Z,5.00
2019-04-10T21:37:56.917Z,4.94
2019-04-10T21:40:28.942Z,4.87
2019-04-10T21:43:01.597Z,4.83
2019-04-10T21:45:34.984Z,4.79
2019-04-10T21:48:07.058Z,4.77
2019-04-10T21:50:39.808Z,4.71
2019-04-10T21:53:12.231Z,4.66
2019-04-10T21:55:44.115Z,4.56
2019-04-10T21:58:16.417Z,4.52
2019-04-10T22:01:08.447Z,4.44
2019-04-10T22:03:41.478Z,4.36
2019-04-10T22:06:31.983Z,4.28
2019-04-10T22:09:39.067Z,4.20
2019-04-10T22:12:25.660Z,4.12
2019-04-10T22:14:52.516Z,4.04
2019-04-10T22:17:24.806Z,3.98
2019-04-10T22:19:57.042Z,3.96
2019-04-10T22:22:28.926Z,3.97
2019-04-10T22:25:01.267Z,4.01
2019-04-10T22:27:34.247Z,4.02
2019-04-10T22:30:08.318Z,4.01
2019-04-10T22:32:40.915Z,3.97
2019-04-10T22:35:13.228Z,4.04
2019-04-10T22:37:46.251Z,4.08
2019-04-10T22:40:19.323Z,4.08
2019-04-10T22:42:51.580Z,4.08
2019-04-10T22:45:34.566Z,4.15
2019-04-10T22:48:06.385Z,4.16
2019-04-10T22:50:38.658Z,4.19
2019-04-10T22:53:11.368Z,4.21
2019-04-10T22:55:45.089Z,4.21
2019-04-10T22:58:17.170Z,4.22
2019-04-10T23:00:50.839Z,4.24
2019-04-10T23:03:22.443Z,4.20
2019-04-10T23:05:54.477Z,4.20
2019-04-10T23:08:27.352Z,4.24
2019-04-10T23:10:59.845Z,4.25
2019-04-10T23:13:32.062Z,4.26
2019-04-10T23:16:08.149Z,4.26
2019-04-10T23:18:41.379Z,4.27
2019-04-10T23:21:14.497Z,4.27
2019-04-10T23:23:47.352Z,4.27
2019-04-10T23:26:20.776Z,4.25
2019-04-10T23:28:52.970Z,4.24
2019-04-10T23:31:25.723Z,4.22
2019-04-10T23:33:58.649Z,4.23
2019-04-10T23:36:31.888Z,4.21
2019-04-10T23:39:06.087Z,4.19
2019-04-10T23:41:38.260Z,4.21
2019-04-10T23:44:11.019Z,4.15
2019-04-10T23:46:43.323Z,4.11
2019-04-10T23:49:15.452Z,4.08
2019-04-10T23:51:47.536Z,4.05
2019-04-10T23:54:19.568Z,4.05
2019-04-10T23:56:52.629Z,4.00
2019-04-10T23:59:24.559Z,3.96
